Time;durP1;ratioP1;P1;durP2;ratioP2;P2;SDS_P1;SDS_P2;PMS_P1;PMS_P2;Temp;Humidity;BMP_temperature;BMP_pressure;BME280_temperature;BME280_humidity;BME280_pressure;Samples;Min_cycle;Max_cycle;Signal;HPM_P1;HPM_P2
2022/08/29 00:01:10;;;;;;;5.10;0.70;;;;;;;21.42;60.63;100661.50;5002877;28;20301;-63
2022/08/29 00:04:15;;;;;;;2.97;0.60;;;;;;;21.59;56.94;100662.34;5003842;28;20892;-63
2022/08/29 00:10:05;;;;;;;6.53;0.60;;;;;;;21.43;57.79;100652.56;4984254;28;20289;-62
2022/08/29 00:12:41;;;;;;;2.90;0.50;;;;;;;21.72;58.52;100658.06;4983511;28;20452;-61
2022/08/29 00:15:35;;;;;;;1.15;0.47;;;;;;;22.02;57.18;100659.91;4984151;28;20317;-61
2022/08/29 00:18:16;;;;;;;;;;;;;;;22.19;54.47;100651.81;4984706;28;20062;-62
2022/08/29 00:20:57;;;;;;;6.77;0.83;;;;;;;21.82;51.86;100643.28;4984110;28;19990;-62
2022/08/29 00:23:48;;;;;;;11.67;1.40;;;;;;;21.66;52.51;100647.75;4983630;28;20345;-62
2022/08/29 00:26:46;;;;;;;4.77;0.73;;;;;;;21.69;52.12;100655.56;4999607;28;20317;-63
2022/08/29 00:29:43;;;;;;;31.20;1.90;;;;;;;21.72;50.89;100658.06;4970953;28;20313;-64
2022/08/29 00:32:33;;;;;;;13.40;0.95;;;;;;;21.41;51.79;100658.91;5002806;28;20289;-63
2022/08/29 00:35:31;;;;;;;11.33;1.03;;;;;;;21.33;51.28;100648.66;4990931;28;20054;-65
2022/08/29 00:38:23;;;;;;;11.38;0.80;;;;;;;21.29;51.34;100655.09;5003310;28;20047;-64
2022/08/29 00:41:12;;;;;;;21.13;3.10;;;;;;;21.36;50.96;100656.47;5003174;28;20058;-63
2022/08/29 00:44:06;;;;;;;6.97;0.90;;;;;;;21.65;50.77;100646.06;5003437;28;20550;-63
2022/08/29 00:46:59;;;;;;;20.17;1.70;;;;;;;21.82;49.67;100656.59;5003988;28;20292;-65
2022/08/29 00:49:40;;;;;;;20.23;1.40;;;;;;;21.77;49.33;100666.66;5003782;28;20286;-65
2022/08/29 00:52:30;;;;;;;4.33;0.93;;;;;;;21.67;48.98;100670.75;5004050;28;20286;-64
2022/08/29 00:55:24;;;;;;;9.83;0.90;;;;;;;21.57;47.93;100658.91;4987769;28;20325;-64
2022/08/29 00:58:03;;;;;;;12.97;1.13;;;;;;;21.46;48.61;100668.34;5003030;28;20297;-62
2022/08/29 01:00:46;;;;;;;26.53;1.47;;;;;;;21.29;51.29;100591.28;5003601;28;20300;-63
2022/08/29 01:03:25;;;;;;;9.33;0.90;;;;;;;21.80;47.63;100655.81;5003353;28;20348;-63
2022/08/29 01:06:13;;;;;;;1.80;0.40;;;;;;;21.86;46.44;100660.78;4986569;28;20556;-63
2022/08/29 01:08:56;;;;;;;2.77;0.60;;;;;;;21.48;48.44;100617.75;5006180;28;20289;-63
2022/08/29 01:14:36;;;;;;;1.90;0.40;;;;;;;21.73;47.70;100663.28;5006841;28;20297;-63
2022/08/29 01:17:35;;;;;;;5.50;0.50;;;;;;;21.70;48.38;100670.59;5005029;28;20312;-62
2022/08/29 01:20:35;;;;;;;5.53;0.80;;;;;;;21.58;47.06;100673.94;5005468;28;20305;-63
2022/08/29 01:23:27;;;;;;;12.53;0.90;;;;;;;21.69;48.24;100676.84;5002106;28;20312;-60
2022/08/29 01:26:22;;;;;;;3.42;0.47;;;;;;;21.79;47.85;100678.06;5004973;28;20301;-60
2022/08/29 01:28:55;;;;;;;12.83;1.10;;;;;;;21.71;46.78;100672.28;5005189;28;20054;-62
2022/08/29 01:31:51;;;;;;;11.10;1.23;;;;;;;21.69;45.17;100679.50;5004664;28;20350;-62
2022/08/29 01:37:23;;;;;;;4.33;0.77;;;;;;;21.68;46.27;100677.78;5001229;28;20309;-61
2022/08/29 01:40:01;;;;;;;4.93;0.90;;;;;;;21.82;45.13;100680.53;5005579;28;20313;-61
2022/08/29 01:42:49;;;;;;;5.73;0.80;;;;;;;21.65;45.90;100672.66;4989996;28;20293;-61
2022/08/29 01:45:25;;;;;;;5.57;0.63;;;;;;;21.47;48.28;100680.72;5006024;28;20328;-61
2022/08/29 01:48:17;;;;;;;15.23;1.50;;;;;;;21.71;47.73;100680.28;4988737;28;20803;-60
2022/08/29 01:51:05;;;;;;;2.83;0.80;;;;;;;21.76;45.55;100686.19;5006318;28;20298;-60
2022/08/29 01:53:48;;;;;;;9.68;0.93;;;;;;;21.81;45.34;100689.44;5006256;28;20288;-62
2022/08/29 01:56:31;;;;;;;3.27;0.50;;;;;;;21.79;45.78;100686.03;5006142;28;20050;-62
2022/08/29 01:59:27;;;;;;;5.20;0.80;;;;;;;21.89;44.46;100686.34;5002769;28;20320;-61
2022/08/29 02:02:16;;;;;;;4.87;0.70;;;;;;;22.00;44.78;100691.06;5002895;28;20341;-62
2022/08/29 02:05:16;;;;;;;1.90;0.47;;;;;;;22.07;42.85;100685.31;5002204;28;20332;-61
2022/08/29 02:08:21;;;;;;;1.95;0.60;;;;;;;22.20;43.39;100684.63;5003266;28;20278;-63
2022/08/29 02:11:12;;;;;;;3.70;0.97;;;;;;;22.17;43.06;100702.47;5000829;28;20126;-62
2022/08/29 02:14:02;;;;;;;8.00;0.70;;;;;;;21.67;40.86;100638.84;5003408;28;20290;-62
2022/08/29 02:17:07;;;;;;;4.73;0.90;;;;;;;22.09;42.01;100725.13;5002489;28;20433;-61
2022/08/29 02:19:45;;;;;;;1.03;0.50;;;;;;;22.09;43.15;100714.47;5001682;28;20289;-62
2022/08/29 02:22:26;;;;;;;4.20;0.80;;;;;;;22.11;44.39;100707.28;5003235;28;20317;-62
2022/08/29 02:28:07;;;;;;;3.97;0.70;;;;;;;22.17;41.02;100701.63;5003157;28;20300;-60
2022/08/29 02:31:00;;;;;;;0.90;0.50;;;;;;;22.13;41.37;100710.72;5001918;28;20300;-61
2022/08/29 02:34:18;;;;;;;2.33;0.53;;;;;;;21.95;41.17;100732.09;4968713;28;20365;-62
2022/08/29 02:37:00;;;;;;;4.33;0.70;;;;;;;21.84;41.46;100726.53;4984871;28;20313;-61
2022/08/29 02:40:25;;;;;;;2.80;0.80;;;;;;;21.81;41.29;100742.63;5002716;28;20321;-62
2022/08/29 02:43:53;;;;;;;4.17;0.67;;;;;;;21.87;41.47;100747.63;5000777;28;20332;-61
2022/08/29 02:47:20;;;;;;;2.47;0.57;;;;;;;21.83;40.99;100739.91;4999460;28;20907;-63
2022/08/29 02:50:27;;;;;;;2.50;0.77;;;;;;;21.89;43.30;100729.78;4968339;28;20308;-61
2022/08/29 02:54:16;;;;;;;12.37;0.90;;;;;;;22.10;42.75;100726.84;5001802;28;20278;-62
2022/08/29 02:57:27;;;;;;;4.83;0.60;;;;;;;22.13;42.26;100740.84;5002316;28;20290;-61
2022/08/29 03:00:38;;;;;;;5.23;0.63;;;;;;;22.26;42.55;100733.03;5001562;28;20690;-61
2022/08/29 03:03:43;;;;;;;2.83;0.80;;;;;;;22.18;42.20;100729.94;5002535;28;20304;-62
2022/08/29 03:09:48;;;;;;;5.63;0.90;;;;;;;22.34;42.46;100746.78;5002151;28;20290;-63
2022/08/29 03:12:40;;;;;;;3.93;0.63;;;;;;;22.21;41.82;100716.47;5001972;28;20285;-60
2022/08/29 03:16:09;;;;;;;4.85;0.73;;;;;;;22.38;42.55;100758.94;5002075;28;20352;-61
2022/08/29 03:19:26;;;;;;;6.17;0.80;;;;;;;22.54;42.53;100758.06;5002029;28;20110;-60
2022/08/29 03:22:54;;;;;;;3.03;1.00;;;;;;;22.49;41.31;100765.44;4913426;29;20311;-61
2022/08/29 03:26:14;;;;;;;8.13;0.93;;;;;;;22.89;45.20;100752.44;4847652;29;21455;-62
2022/08/29 03:29:25;;;;;;;9.60;1.17;;;;;;;23.37;44.69;100753.13;4848202;29;20398;-61
2022/08/29 03:32:35;;;;;;;3.50;0.63;;;;;;;23.29;39.33;100742.06;4821083;29;20054;-63
2022/08/29 03:35:47;;;;;;;3.03;0.50;;;;;;;23.17;39.98;100752.53;4820022;29;20050;-61
2022/08/29 03:39:35;;;;;;;0.87;0.60;;;;;;;23.10;39.46;100753.84;4821274;29;20070;-62
2022/08/29 03:43:02;;;;;;;4.93;0.80;;;;;;;22.68;39.09;100728.81;4820668;29;20643;-61
2022/08/29 03:49:50;;;;;;;6.77;0.50;;;;;;;22.76;36.86;100737.19;4773667;30;20055;-64
2022/08/29 03:53:19;;;;;;;2.57;0.60;;;;;;;22.49;37.76;100733.50;4774987;30;20495;-66
2022/08/29 03:56:00;;;;;;;8.07;0.90;;;;;;;22.47;38.84;100730.94;4742932;30;20309;-65
2022/08/29 03:59:08;;;;;;;6.60;0.70;;;;;;;22.54;38.97;100739.41;4828488;29;20086;-64
2022/08/29 04:02:22;;;;;;;9.97;1.13;;;;;;;22.50;38.60;100745.88;4883732;29;20092;-65
2022/08/29 04:05:42;;;;;;;6.07;1.23;;;;;;;22.52;38.68;100728.00;4883650;29;20057;-67
2022/08/29 04:09:11;;;;;;;5.63;1.17;;;;;;;22.72;39.12;100725.03;4865137;29;20074;-64
2022/08/29 04:12:13;;;;;;;2.38;0.70;;;;;;;22.64;38.93;100727.28;4792798;29;20350;-66
2022/08/29 04:19:45;;;;;;;16.13;1.60;;;;;;;22.06;36.88;100637.50;4792893;30;20073;-64
2022/08/29 04:22:58;;;;;;;;;;;;;;;22.59;37.25;100718.72;4771650;29;20060;-65
2022/08/29 04:26:07;;;;;;;4.10;1.00;;;;;;;22.71;39.14;100728.63;4866001;29;20135;-66
2022/08/29 04:29:26;;;;;;;13.93;1.65;;;;;;;22.83;39.16;100735.03;4860562;29;20327;-65
2022/08/29 04:35:38;;;;;;;1.67;0.60;;;;;;;22.90;35.89;100740.84;4874432;29;20100;-65
2022/08/29 04:38:25;;;;;;;8.13;0.90;;;;;;;22.90;35.89;100743.50;4903031;29;20296;-65
2022/08/29 04:41:20;;;;;;;2.77;0.70;;;;;;;23.01;36.85;100746.41;4877366;29;20056;-66
2022/08/29 04:44:06;;;;;;;1.10;0.50;;;;;;;23.03;37.41;100749.84;4878379;29;20067;-67
2022/08/29 04:47:00;;;;;;;5.97;0.70;;;;;;;22.97;36.80;100755.53;4928076;28;20043;-66
2022/08/29 04:49:45;;;;;;;3.23;0.67;;;;;;;22.91;37.78;100755.88;4944169;28;20089;-66
2022/08/29 04:52:30;;;;;;;1.37;0.67;;;;;;;22.79;35.82;100754.81;4982985;28;20324;-63
2022/08/29 04:55:09;;;;;;;2.43;0.77;;;;;;;22.50;38.09;100703.28;4983031;28;20046;-66
2022/08/29 04:57:56;;;;;;;35.20;3.10;;;;;;;23.00;37.74;100744.72;4983385;28;20309;-65
2022/08/29 05:00:40;;;;;;;21.58;1.88;;;;;;;23.01;37.08;100722.41;4982968;28;20042;-65
2022/08/29 05:03:18;;;;;;;4.30;0.83;;;;;;;23.12;35.66;100749.28;4982872;28;20062;-63
2022/08/29 05:05:58;;;;;;;9.43;1.30;;;;;;;23.12;37.67;100754.63;4982740;28;20060;-67
2022/08/29 05:09:06;;;;;;;9.27;1.00;;;;;;;22.97;35.96;100763.53;4982344;28;20047;-65
2022/08/29 05:12:03;;;;;;;7.03;0.70;;;;;;;22.64;36.67;100761.91;4980820;28;20063;-66
2022/08/29 05:14:55;;;;;;;17.37;1.80;;;;;;;22.64;38.65;100764.59;4982706;28;20062;-65
2022/08/29 05:20:23;;;;;;;28.13;2.83;;;;;;;22.73;37.24;100774.66;4979121;28;20101;-67
2022/08/29 05:23:16;;;;;;;22.93;2.23;;;;;;;22.57;38.39;100773.88;4982663;28;20059;-66
2022/08/29 05:26:04;;;;;;;6.07;0.90;;;;;;;22.70;39.25;100769.53;4981609;28;20065;-66
2022/08/29 05:28:39;;;;;;;29.77;3.57;;;;;;;22.67;38.11;100784.84;4981354;28;20082;-66
2022/08/29 05:31:20;;;;;;;55.57;4.90;;;;;;;22.57;39.41;100779.19;4966748;28;20051;-67
2022/08/29 05:34:14;;;;;;;8.23;1.17;;;;;;;22.75;40.71;100788.75;4982120;28;20057;-67
2022/08/29 05:37:13;;;;;;;38.40;3.07;;;;;;;22.67;39.98;100764.41;4982652;28;20047;-67
2022/08/29 05:40:14;;;;;;;7.30;0.90;;;;;;;22.58;40.37;100732.97;4982176;28;20047;-66
2022/08/29 05:42:55;;;;;;;2.53;0.70;;;;;;;23.07;36.89;100794.03;4982234;28;20054;-65
2022/08/29 05:45:44;;;;;;;16.67;1.80;;;;;;;23.00;37.14;100771.34;4980173;28;20078;-66
2022/08/29 05:48:47;;;;;;;37.77;2.90;;;;;;;23.06;36.39;100780.78;4933987;28;20113;-65
2022/08/29 05:51:31;;;;;;;20.37;2.30;;;;;;;22.82;36.41;100784.78;4982018;28;20495;-64
2022/08/29 05:54:45;;;;;;;7.28;1.27;;;;;;;22.73;35.29;100774.66;4954606;28;20070;-65
2022/08/29 05:58:19;;;;;;;10.83;1.40;;;;;;;22.55;34.47;100773.09;4980087;28;20055;-66
2022/08/29 06:01:12;;;;;;;19.65;1.75;;;;;;;22.26;36.85;100786.28;4981937;28;20090;-64
2022/08/29 06:03:53;;;;;;;8.53;1.40;;;;;;;22.15;36.91;100767.38;4981384;28;20065;-65
2022/08/29 06:06:46;;;;;;;3.20;1.03;;;;;;;22.02;37.20;100729.09;4982035;28;20059;-66
2022/08/29 06:09:30;;;;;;;14.10;1.50;;;;;;;22.35;37.80;100785.75;4982198;28;20347;-65
2022/08/29 06:12:11;;;;;;;22.30;1.80;;;;;;;22.27;37.67;100795.13;4981957;28;20054;-64
2022/08/29 06:14:47;;;;;;;30.03;2.27;;;;;;;22.12;37.53;100799.50;4981313;28;20054;-65
2022/08/29 06:17:37;;;;;;;13.63;1.70;;;;;;;21.91;39.38;100749.16;4981680;28;20279;-65
2022/08/29 06:20:16;;;;;;;19.83;1.92;;;;;;;22.36;38.97;100803.44;4981777;28;20054;-65
2022/08/29 06:22:56;;;;;;;6.60;1.10;;;;;;;22.40;38.80;100804.97;4965429;28;20365;-66
2022/08/29 06:25:44;;;;;;;10.03;1.60;;;;;;;22.25;38.05;100805.88;4949432;28;20292;-67
2022/08/29 06:28:33;;;;;;;24.53;2.43;;;;;;;22.10;39.56;100812.88;4905148;29;20409;-68
2022/08/29 06:31:16;;;;;;;6.87;1.20;;;;;;;22.15;40.55;100799.31;4903751;29;20303;-67
2022/08/29 06:34:17;;;;;;;7.67;1.13;;;;;;;22.27;40.17;100808.44;4923773;29;20368;-65
2022/08/29 06:37:14;;;;;;;4.07;0.80;;;;;;;22.32;37.73;100828.53;4885483;29;20300;-66
2022/08/29 06:39:56;;;;;;;4.78;0.65;;;;;;;22.24;38.81;100830.78;4886194;29;20294;-65
2022/08/29 06:42:36;;;;;;;34.28;1.90;;;;;;;22.17;38.64;100829.38;4885946;29;20084;-65
2022/08/29 06:45:13;;;;;;;93.57;6.87;;;;;;;22.20;39.29;100834.53;4886328;29;20068;-65
2022/08/29 06:48:24;;;;;;;4.47;0.97;;;;;;;22.20;39.52;100828.38;4886039;29;20053;-65
2022/08/29 06:51:18;;;;;;;7.40;0.90;;;;;;;22.00;39.78;100832.97;4885746;29;20049;-67
2022/08/29 06:54:46;;;;;;;;;;;;;;;;;;;;;
2022/08/29 06:57:36;;;;;;;49.20;3.10;;;;;;;21.67;40.67;100819.69;4857094;29;20122;-65
2022/08/29 07:00:22;;;;;;;27.98;2.75;;;;;;;21.56;41.08;100848.66;4885358;29;20285;-65
2022/08/29 07:03:06;;;;;;;15.50;1.60;;;;;;;21.27;43.51;100837.72;4923204;29;20066;-65
2022/08/29 07:06:02;;;;;;;12.47;1.77;;;;;;;20.84;44.46;100823.94;4977522;28;20309;-66
2022/08/29 07:08:40;;;;;;;16.20;1.97;;;;;;;20.81;44.82;100850.66;5001925;28;20823;-66
2022/08/29 07:11:46;;;;;;;41.93;3.13;;;;;;;20.26;46.13;100775.41;5002320;28;20293;-66
2022/08/29 07:18:17;;;;;;;29.83;3.87;;;;;;;20.57;47.84;100848.28;4979584;28;20341;-66
2022/08/29 07:22:00;;;;;;;32.90;2.87;;;;;;;20.13;46.90;100774.28;5016455;28;20297;-66
2022/08/29 07:24:51;;;;;;;9.18;1.45;;;;;;;20.53;46.69;100845.81;5010811;28;20300;-66
2022/08/29 07:31:04;;;;;;;28.87;3.00;;;;;;;20.35;46.41;100847.56;4986441;28;20305;-65
2022/08/29 07:33:46;;;;;;;23.47;1.83;;;;;;;20.26;45.30;100857.66;4994710;28;20562;-65
2022/08/29 07:36:41;;;;;;;14.33;1.50;;;;;;;20.25;45.17;100868.38;5009262;28;20317;-64
2022/08/29 07:39:33;;;;;;;12.10;1.50;;;;;;;20.24;45.09;100867.53;4981496;28;20293;-64
2022/08/29 07:42:30;;;;;;;9.37;1.30;;;;;;;20.19;44.85;100868.66;5024564;28;20288;-64
2022/08/29 07:45:20;;;;;;;23.37;2.40;;;;;;;20.13;45.17;100885.72;5012575;28;20302;-64
2022/08/29 07:47:59;;;;;;;52.67;4.23;;;;;;;20.12;45.59;100889.31;5011578;28;20285;-65
2022/08/29 07:50:48;;;;;;;66.63;3.75;;;;;;;20.18;48.21;100894.31;5011603;28;20284;-66
2022/08/29 07:53:43;;;;;;;20.27;2.07;;;;;;;20.19;48.70;100898.72;4947889;28;20061;-65
2022/08/29 07:56:19;;;;;;;13.20;1.60;;;;;;;20.14;48.36;100898.03;5010786;28;20317;-64
2022/08/29 07:59:00;;;;;;;14.20;1.88;;;;;;;20.10;49.53;100896.47;5011394;28;20300;-65
2022/08/29 08:01:41;;;;;;;10.53;1.50;;;;;;;19.96;49.81;100893.59;4995915;28;20054;-65
2022/08/29 08:07:10;;;;;;;25.13;1.87;;;;;;;19.96;53.15;100897.09;5010711;28;20312;-65
2022/08/29 08:10:12;;;;;;;39.33;3.23;;;;;;;19.84;54.44;100884.38;5011019;28;20316;-63
2022/08/29 08:13:07;;;;;;;79.23;5.50;;;;;;;19.75;54.83;100895.44;5011623;28;20632;-64
2022/08/29 08:15:42;;;;;;;24.03;2.13;;;;;;;19.49;53.78;100899.16;5010342;28;20324;-64
2022/08/29 08:18:28;;;;;;;71.83;4.83;;;;;;;19.20;56.32;100903.94;5010744;28;20372;-65
2022/08/29 08:21:10;;;;;;;56.08;3.42;;;;;;;19.00;57.84;100906.56;5011957;28;20334;-65
2022/08/29 08:24:00;;;;;;;49.55;4.80;;;;;;;18.91;59.29;100903.34;4981825;28;20052;-66
2022/08/29 08:26:43;;;;;;;40.10;3.37;;;;;;;18.99;60.82;100904.81;5015021;28;20062;-66
2022/08/29 08:29:23;;;;;;;22.37;2.10;;;;;;;18.79;59.07;100887.97;5015520;28;20293;-66
2022/08/29 08:32:02;;;;;;;6.30;0.97;;;;;;;18.90;54.37;100906.06;5010011;28;20321;-67
2022/08/29 08:34:41;;;;;;;8.87;1.17;;;;;;;18.92;56.13;100920.97;5013178;28;20598;-66
2022/08/29 08:37:32;;;;;;;12.43;1.30;;;;;;;18.91;57.71;100924.53;4975753;28;20293;-66
2022/08/29 08:40:09;;;;;;;17.57;1.67;;;;;;;18.82;56.78;100932.88;5008075;28;20310;-66
2022/08/29 08:45:46;;;;;;;94.43;5.17;;;;;;;18.56;59.92;100946.22;5013220;28;20360;-66
2022/08/29 08:48:39;;;;;;;56.97;4.07;;;;;;;18.49;59.09;100927.91;5014097;28;20306;-66
2022/08/29 08:51:22;;;;;;;53.30;4.03;;;;;;;18.51;59.95;100952.53;5014928;28;20345;-66
2022/08/29 08:54:25;;;;;;;269.30;13.87;;;;;;;18.34;61.28;100936.44;5013574;28;20301;-65
2022/08/29 08:57:19;;;;;;;239.43;14.23;;;;;;;18.30;61.02;100953.38;5014031;28;20281;-64
2022/08/29 09:00:02;;;;;;;124.17;7.77;;;;;;;18.19;62.49;100955.53;5014787;28;20285;-64
2022/08/29 09:02:59;;;;;;;20.13;2.37;;;;;;;17.82;63.26;100935.72;4982468;28;20302;-65
2022/08/29 09:06:05;;;;;;;58.90;4.07;;;;;;;17.90;63.87;100954.84;5014316;28;20395;-64
2022/08/29 09:08:54;;;;;;;47.67;2.80;;;;;;;17.17;65.02;100874.53;5015420;28;20293;-64
2022/08/29 09:11:44;;;;;;;42.45;2.78;;;;;;;16.95;66.76;100894.66;4987774;28;20091;-64
2022/08/29 09:17:59;;;;;;;21.43;2.20;;;;;;;16.94;68.21;100929.88;4988273;28;20282;-64
2022/08/29 09:20:46;;;;;;;24.27;2.10;;;;;;;16.72;68.75;100933.13;4998097;28;20304;-64
2022/08/29 09:23:29;;;;;;;9.40;1.60;;;;;;;16.59;69.36;100945.00;5012589;28;20450;-65
2022/08/29 09:26:13;;;;;;;25.00;2.10;;;;;;;16.44;69.67;100945.47;5015175;28;20262;-65
2022/08/29 09:28:57;;;;;;;30.60;2.43;;;;;;;16.40;69.78;100942.06;4981327;28;20293;-65
2022/08/29 09:31:42;;;;;;;8.60;1.30;;;;;;;16.31;70.34;100945.81;5012651;28;20309;-64
2022/08/29 09:34:39;;;;;;;11.37;1.50;;;;;;;16.20;70.94;100953.19;5013717;28;20275;-64
2022/08/29 09:37:41;;;;;;;24.77;1.83;;;;;;;16.01;71.17;100926.47;5012687;28;20294;-65
2022/08/29 09:40:25;;;;;;;44.33;2.57;;;;;;;16.22;70.54;100967.16;5014190;28;20304;-66
2022/08/29 09:43:16;;;;;;;8.90;1.30;;;;;;;16.18;70.18;100960.28;5012765;28;20296;-65
2022/08/29 09:46:24;;;;;;;8.73;1.00;;;;;;;16.21;69.07;100962.81;5012797;28;20353;-65
2022/08/29 09:49:17;;;;;;;29.40;2.53;;;;;;;16.11;69.28;100948.16;5012279;28;20297;-64
2022/08/29 09:52:12;;;;;;;11.03;1.77;;;;;;;16.08;68.93;100950.91;5012320;28;20352;-64
2022/08/29 09:54:47;;;;;;;4.73;1.07;;;;;;;15.99;69.01;100964.31;5012427;28;20328;-63
2022/08/29 09:57:31;;;;;;;0.90;0.80;;;;;;;15.90;69.19;100971.59;5012528;28;20341;-64
2022/08/29 10:00:25;;;;;;;7.63;1.30;;;;;;;15.60;69.30;100940.72;4981614;28;20297;-63
2022/08/29 10:03:21;;;;;;;7.37;1.27;;;;;;;15.77;69.35;100985.97;5012337;28;20289;-63
2022/08/29 10:06:15;;;;;;;2.70;1.07;;;;;;;15.68;68.70;100986.22;5014440;28;20297;-64
2022/08/29 10:09:09;;;;;;;9.70;1.33;;;;;;;15.70;68.52;101000.22;5010532;28;20389;-64
2022/08/29 10:11:52;;;;;;;3.53;0.80;;;;;;;15.70;68.72;101000.22;5013866;28;20320;-63
2022/08/29 10:14:46;;;;;;;1.23;0.73;;;;;;;15.77;69.44;100996.50;4977173;28;20339;-64
2022/08/29 10:20:46;;;;;;;8.53;0.97;;;;;;;15.65;72.96;101002.97;5011933;28;20293;-64
2022/08/29 10:23:39;;;;;;;1.97;1.00;;;;;;;15.57;74.02;101009.31;5013434;28;20329;-63
2022/08/29 10:26:35;;;;;;;2.40;0.90;;;;;;;15.36;72.92;100984.38;5013917;28;20575;-62
2022/08/29 10:29:25;;;;;;;5.97;1.17;;;;;;;15.45;71.45;101014.00;5012549;28;20278;-65
2022/08/29 10:35:18;;;;;;;19.87;2.23;;;;;;;15.42;71.01;101044.78;5013386;28;20297;-62
2022/08/29 10:38:15;;;;;;;16.43;2.33;;;;;;;15.45;71.66;101053.50;5012409;28;20298;-63
2022/08/29 10:41:10;;;;;;;4.70;0.90;;;;;;;15.32;73.38;101041.50;5011337;28;20309;-63
2022/08/29 10:43:56;;;;;;;3.10;0.90;;;;;;;15.34;74.56;101058.13;5011826;28;20313;-64
2022/08/29 10:47:21;;;;;;;4.17;0.93;;;;;;;15.29;75.34;101057.38;4989410;28;20308;-63
2022/08/29 10:50:26;;;;;;;2.50;0.80;;;;;;;15.13;75.11;101034.97;5011634;28;20487;-63
2022/08/29 10:53:37;;;;;;;56.93;3.53;;;;;;;15.09;73.72;101035.00;5012285;28;20340;-64
2022/08/29 10:56:40;;;;;;;37.80;2.50;;;;;;;15.10;74.09;101038.50;4977045;28;20297;-63
2022/08/29 10:59:29;;;;;;;85.00;5.87;;;;;;;15.06;74.90;101031.59;5008785;28;20053;-63
2022/08/29 11:02:12;;;;;;;59.77;4.07;;;;;;;15.01;74.77;101036.09;5011001;28;20297;-64
2022/08/29 11:08:09;;;;;;;5.67;1.00;;;;;;;14.69;75.10;101035.00;5011753;28;20299;-64
2022/08/29 11:10:58;;;;;;;9.03;1.30;;;;;;;14.64;74.65;101035.09;5012156;28;20289;-64
2022/08/29 11:13:45;;;;;;;9.13;1.23;;;;;;;14.69;72.66;101028.91;5012205;28;20297;-63
2022/08/29 11:16:29;;;;;;;2.77;0.80;;;;;;;14.71;71.12;101021.84;5012972;28;20285;-63
2022/08/29 11:19:11;;;;;;;5.00;0.90;;;;;;;14.64;70.51;101015.84;5009719;28;20281;-63
2022/08/29 11:22:17;;;;;;;10.80;1.23;;;;;;;14.86;71.00;101037.28;5010280;28;20349;-63
2022/08/29 11:25:15;;;;;;;20.70;2.10;;;;;;;14.48;72.58;100962.69;4994441;28;20328;-64
2022/08/29 11:28:16;;;;;;;21.03;1.77;;;;;;;14.62;73.01;101018.50;5012453;28;20312;-63
2022/08/29 11:31:03;;;;;;;28.03;3.20;;;;;;;14.30;74.52;100984.06;5011784;28;20851;-62
2022/08/29 11:33:51;;;;;;;19.47;1.83;;;;;;;14.36;75.89;101015.50;5011281;28;20288;-63
2022/08/29 11:36:46;;;;;;;18.00;2.27;;;;;;;14.16;76.37;100987.84;5011679;28;20319;-64
2022/08/29 11:40:02;;;;;;;27.43;2.13;;;;;;;14.38;76.96;101004.06;5010632;28;20297;-63
2022/08/29 11:42:53;;;;;;;11.10;1.57;;;;;;;14.34;75.94;100991.00;5011980;28;20300;-63
2022/08/29 11:48:53;;;;;;;12.50;1.70;;;;;;;14.43;77.57;101001.34;4986111;28;20331;-64
2022/08/29 11:51:53;;;;;;;12.10;1.53;;;;;;;14.47;78.46;100992.47;5008954;28;20292;-65
2022/08/29 11:54:53;;;;;;;61.58;4.00;;;;;;;14.46;79.89;101006.53;5010025;28;20420;-65
2022/08/29 12:01:03;;;;;;;27.83;1.80;;;;;;;14.24;80.10;101001.69;4924695;29;20115;-65
2022/08/29 12:03:48;;;;;;;19.10;1.73;;;;;;;13.93;80.29;100963.78;4930567;29;20299;-65
2022/08/29 12:06:45;;;;;;;8.23;1.90;;;;;;;14.02;80.32;100992.50;4930457;29;20324;-65
2022/08/29 12:09:52;;;;;;;32.67;3.17;;;;;;;13.67;80.66;100940.63;4886368;29;20066;-64
2022/08/29 12:12:42;;;;;;;24.35;2.67;;;;;;;13.96;80.21;101003.13;4930929;29;20067;-65
2022/08/29 12:16:13;;;;;;;11.75;1.92;;;;;;;13.95;79.78;101009.28;4933598;29;20068;-65
2022/08/29 12:19:12;;;;;;;10.27;1.83;;;;;;;14.02;80.56;101005.63;4884535;29;20086;-64
2022/08/29 12:22:11;;;;;;;16.33;2.45;;;;;;;14.05;81.75;101005.56;4883773;29;20359;-65
2022/08/29 12:25:21;;;;;;;17.83;2.20;;;;;;;14.06;82.22;101002.06;4884415;29;20045;-64
2022/08/29 12:28:07;;;;;;;11.68;1.83;;;;;;;14.10;81.97;100993.22;4884228;29;20075;-65
2022/08/29 12:31:08;;;;;;;9.27;1.38;;;;;;;14.07;82.10;100982.75;4884885;29;20052;-65
2022/08/29 12:34:28;;;;;;;4.18;1.27;;;;;;;14.05;81.98;100981.94;4884868;29;20132;-65
2022/08/29 12:37:53;;;;;;;9.27;1.27;;;;;;;14.04;82.14;100990.72;4894335;29;20384;-65
2022/08/29 12:41:01;;;;;;;6.60;1.15;;;;;;;13.97;82.62;100994.34;4956954;29;20073;-65
2022/08/29 12:43:45;;;;;;;3.33;1.00;;;;;;;13.66;83.23;100939.75;4958965;29;20190;-65
2022/08/29 12:46:26;;;;;;;2.08;0.90;;;;;;;13.97;83.19;101002.22;4905139;29;20119;-65
2022/08/29 12:49:19;;;;;;;3.30;1.20;;;;;;;13.90;83.30;101011.13;4960007;29;20255;-65
2022/08/29 12:52:01;;;;;;;5.95;1.08;;;;;;;13.67;83.44;100978.25;4960599;29;20135;-65
2022/08/29 12:55:22;;;;;;;3.58;1.33;;;;;;;13.94;83.72;101013.66;4974551;28;20089;-65
2022/08/29 12:58:02;;;;;;;2.15;1.00;;;;;;;13.89;83.93;101010.25;5010830;28;20540;-65
2022/08/29 13:00:39;;;;;;;4.72;1.40;;;;;;;13.86;83.98;101007.69;5010815;28;20104;-64
2022/08/29 13:03:22;;;;;;;3.00;1.20;;;;;;;13.84;83.76;101006.00;5012041;28;20058;-64
2022/08/29 13:06:10;;;;;;;6.57;1.63;;;;;;;13.72;83.86;100981.66;4996271;28;20058;-64
2022/08/29 13:08:57;;;;;;;11.35;1.48;;;;;;;13.45;83.59;100956.75;5012705;28;20381;-64
2022/08/29 13:14:37;;;;;;;7.38;1.30;;;;;;;13.99;83.24;101016.22;5014353;28;20134;-64
2022/08/29 13:17:18;;;;;;;6.32;0.98;;;;;;;14.11;82.62;101016.00;5013470;28;20119;-64
2022/08/29 13:20:41;;;;;;;5.28;1.40;;;;;;;14.24;81.62;101022.72;5013617;28;20085;-65
2022/08/29 13:23:36;;;;;;;4.78;1.30;;;;;;;14.18;81.56;101016.75;5014476;28;20122;-65
2022/08/29 13:29:38;;;;;;;4.07;1.20;;;;;;;14.10;81.87;101011.59;5012963;28;20312;-65
2022/08/29 13:32:22;;;;;;;3.50;1.75;;;;;;;14.12;81.96;101020.34;5012777;28;20081;-64
2022/08/29 13:35:21;;;;;;;7.05;1.67;;;;;;;14.14;81.85;101026.44;5011308;28;20054;-65
2022/08/29 13:38:38;;;;;;;3.90;1.70;;;;;;;14.16;82.04;101029.91;5012960;28;20058;-63
2022/08/29 13:41:34;;;;;;;6.63;1.50;;;;;;;14.12;82.31;101030.84;5014438;28;20293;-65
2022/08/29 13:44:20;;;;;;;5.75;1.20;;;;;;;14.14;82.45;101036.09;5012171;28;20065;-65
2022/08/29 13:47:04;;;;;;;11.65;1.63;;;;;;;14.17;82.24;101036.88;5013965;28;20108;-66
2022/08/29 13:49:42;;;;;;;5.20;1.30;;;;;;;14.20;81.60;101026.34;5013184;28;20050;-64
2022/08/29 13:52:20;;;;;;;5.38;1.20;;;;;;;14.19;81.61;101023.72;5013949;28;20096;-64
2022/08/29 13:55:08;;;;;;;9.38;1.50;;;;;;;14.23;81.32;101005.25;5013275;28;20057;-64
2022/08/29 13:57:53;;;;;;;4.73;1.20;;;;;;;13.90;81.26;100942.81;4980255;28;20065;-63
2022/08/29 14:00:42;;;;;;;2.77;1.27;;;;;;;14.19;81.57;100993.03;5027799;28;20299;-64
2022/08/29 14:03:27;;;;;;;2.50;1.43;;;;;;;14.21;80.92;100995.66;5013235;28;20293;-64
2022/08/29 14:06:21;;;;;;;3.40;1.27;;;;;;;14.20;80.25;101021.06;5011241;28;20349;-64
2022/08/29 14:09:05;;;;;;;1.67;0.93;;;;;;;14.13;79.74;101029.97;5012605;28;20327;-64
2022/08/29 14:11:48;;;;;;;5.20;0.90;;;;;;;14.09;79.85;101030.91;5012391;28;20324;-64
2022/08/29 14:14:39;;;;;;;6.33;1.17;;;;;;;14.13;79.75;101019.47;5012693;28;20292;-63
2022/08/29 14:17:17;;;;;;;4.73;1.37;;;;;;;14.08;79.35;100997.66;5013805;28;20353;-63
2022/08/29 14:20:02;;;;;;;6.40;1.37;;;;;;;14.30;79.09;101026.13;5013704;28;20308;-63
2022/08/29 14:22:39;;;;;;;4.65;1.30;;;;;;;14.32;79.43;101019.09;5013575;28;20321;-65
2022/08/29 14:25:20;;;;;;;4.88;1.15;;;;;;;14.18;79.68;101007.09;4987539;28;20483;-64
2022/08/29 14:28:02;;;;;;;4.18;0.98;;;;;;;14.15;79.53;101009.78;4986402;28;20367;-64
2022/08/29 14:30:58;;;;;;;3.20;1.42;;;;;;;14.01;79.67;100994.28;4964746;28;20057;-64
2022/08/29 14:33:54;;;;;;;1.70;0.80;;;;;;;13.84;80.38;101000.72;5002369;28;20050;-65